sensor_id;sensor_type;location;lat;lon;timestamp;temperature;humidity
63013;DHT22;62113;45.624;11.700;2023-03-03T00:01:28;8.70;64.90
63013;DHT22;62113;45.624;11.700;2023-03-03T00:03:54;8.70;65.00
63013;DHT22;62113;45.624;11.700;2023-03-03T00:06:20;8.70;64.90
63013;DHT22;62113;45.624;11.700;2023-03-03T00:08:46;8.70;64.90
63013;DHT22;62113;45.624;11.700;2023-03-03T00:11:11;8.70;64.90
63013;DHT22;62113;45.624;11.700;2023-03-03T00:13:47;8.60;64.90
63013;DHT22;62113;45.624;11.700;2023-03-03T00:16:20;8.60;64.90
63013;DHT22;62113;45.624;11.700;2023-03-03T00:18:47;8.60;65.00
63013;DHT22;62113;45.624;11.700;2023-03-03T00:21:19;8.60;64.90
63013;DHT22;62113;45.624;11.700;2023-03-03T00:23:46;8.50;65.00
63013;DHT22;62113;45.624;11.700;2023-03-03T00:26:33;8.50;64.90
63013;DHT22;62113;45.624;11.700;2023-03-03T00:29:00;8.50;65.00
63013;DHT22;62113;45.624;11.700;2023-03-03T00:31:33;8.50;64.90
63013;DHT22;62113;45.624;11.700;2023-03-03T00:34:08;8.50;64.90
63013;DHT22;62113;45.624;11.700;2023-03-03T00:36:36;8.50;64.90
63013;DHT22;62113;45.624;11.700;2023-03-03T00:41:48;8.40;64.90
63013;DHT22;62113;45.624;11.700;2023-03-03T00:46:48;8.40;65.10
63013;DHT22;62113;45.624;11.700;2023-03-03T00:49:18;8.40;65.10
63013;DHT22;62113;45.624;11.700;2023-03-03T00:51:47;8.40;65.10
63013;DHT22;62113;45.624;11.700;2023-03-03T00:54:12;8.30;65.20
63013;DHT22;62113;45.624;11.700;2023-03-03T00:56:38;8.30;65.10
63013;DHT22;62113;45.624;11.700;2023-03-03T00:59:03;8.40;65.20
63013;DHT22;62113;45.624;11.700;2023-03-03T01:01:29;8.40;65.00
63013;DHT22;62113;45.624;11.700;2023-03-03T01:03:54;8.30;65.00
63013;DHT22;62113;45.624;11.700;2023-03-03T01:06:20;8.30;65.00
63013;DHT22;62113;45.624;11.700;2023-03-03T01:08:46;8.30;65.00
63013;DHT22;62113;45.624;11.700;2023-03-03T01:11:12;8.30;65.10
63013;DHT22;62113;45.624;11.700;2023-03-03T01:13:41;8.30;65.20
63013;DHT22;62113;45.624;11.700;2023-03-03T01:16:07;8.20;65.00
63013;DHT22;62113;45.624;11.700;2023-03-03T01:18:33;8.20;65.00
63013;DHT22;62113;45.624;11.700;2023-03-03T01:20:59;8.20;65.10
63013;DHT22;62113;45.624;11.700;2023-03-03T01:23:26;8.20;65.10
63013;DHT22;62113;45.624;11.700;2023-03-03T01:25:52;8.20;65.10
63013;DHT22;62113;45.624;11.700;2023-03-03T01:28:17;8.20;65.10
63013;DHT22;62113;45.624;11.700;2023-03-03T01:30:43;8.20;65.20
63013;DHT22;62113;45.624;11.700;2023-03-03T01:33:08;8.20;65.20
63013;DHT22;62113;45.624;11.700;2023-03-03T01:35:34;8.10;65.20
63013;DHT22;62113;45.624;11.700;2023-03-03T01:38:00;8.10;65.10
63013;DHT22;62113;45.624;11.700;2023-03-03T01:40:28;8.10;65.10
63013;DHT22;62113;45.624;11.700;2023-03-03T01:42:54;8.10;65.10
63013;DHT22;62113;45.624;11.700;2023-03-03T01:45:23;8.10;65.00
63013;DHT22;62113;45.624;11.700;2023-03-03T01:50:31;8.10;65.00
63013;DHT22;62113;45.624;11.700;2023-03-03T01:52:59;8.00;64.90
63013;DHT22;62113;45.624;11.700;2023-03-03T01:55:28;7.90;65.00
63013;DHT22;62113;45.624;11.700;2023-03-03T01:57:56;8.00;65.00
63013;DHT22;62113;45.624;11.700;2023-03-03T02:00:23;8.00;65.00
63013;DHT22;62113;45.624;11.700;2023-03-03T02:02:49;7.90;65.00
63013;DHT22;62113;45.624;11.700;2023-03-03T02:05:15;7.90;65.00
63013;DHT22;62113;45.624;11.700;2023-03-03T02:07:41;7.90;65.00
63013;DHT22;62113;45.624;11.700;2023-03-03T02:10:11;7.80;65.00
63013;DHT22;62113;45.624;11.700;2023-03-03T02:15:19;7.80;65.10
63013;DHT22;62113;45.624;11.700;2023-03-03T02:17:45;7.80;65.00
63013;DHT22;62113;45.624;11.700;2023-03-03T02:23:10;7.70;65.10
63013;DHT22;62113;45.624;11.700;2023-03-03T02:28:08;7.70;65.10
63013;DHT22;62113;45.624;11.700;2023-03-03T02:30:37;7.70;65.20
63013;DHT22;62113;45.624;11.700;2023-03-03T02:33:03;7.70;65.20
63013;DHT22;62113;45.624;11.700;2023-03-03T02:35:31;7.70;65.20
63013;DHT22;62113;45.624;11.700;2023-03-03T02:37:58;7.60;65.10
63013;DHT22;62113;45.624;11.700;2023-03-03T02:40:25;7.60;65.10
63013;DHT22;62113;45.624;11.700;2023-03-03T02:42:52;7.50;65.10
63013;DHT22;62113;45.624;11.700;2023-03-03T02:45:18;7.50;65.20
63013;DHT22;62113;45.624;11.700;2023-03-03T02:47:50;7.50;65.20
63013;DHT22;62113;45.624;11.700;2023-03-03T02:50:15;7.40;65.20
63013;DHT22;62113;45.624;11.700;2023-03-03T02:52:41;7.40;65.30
63013;DHT22;62113;45.624;11.700;2023-03-03T02:55:06;7.40;65.30
63013;DHT22;62113;45.624;11.700;2023-03-03T02:57:32;7.40;65.50
63013;DHT22;62113;45.624;11.700;2023-03-03T02:59:58;7.40;65.40
63013;DHT22;62113;45.624;11.700;2023-03-03T03:02:23;7.40;65.40
63013;DHT22;62113;45.624;11.700;2023-03-03T03:04:49;7.30;65.40
63013;DHT22;62113;45.624;11.700;2023-03-03T03:07:14;7.30;65.50
63013;DHT22;62113;45.624;11.700;2023-03-03T03:09:40;7.30;65.50
63013;DHT22;62113;45.624;11.700;2023-03-03T03:12:05;7.30;65.50
63013;DHT22;62113;45.624;11.700;2023-03-03T03:14:31;7.30;65.50
63013;DHT22;62113;45.624;11.700;2023-03-03T03:16:56;7.30;65.50
63013;DHT22;62113;45.624;11.700;2023-03-03T03:19:22;7.30;65.50
63013;DHT22;62113;45.624;11.700;2023-03-03T03:21:47;7.30;65.60
63013;DHT22;62113;45.624;11.700;2023-03-03T03:24:12;7.20;65.60
63013;DHT22;62113;45.624;11.700;2023-03-03T03:26:38;7.20;65.60
63013;DHT22;62113;45.624;11.700;2023-03-03T03:29:03;7.20;65.60
63013;DHT22;62113;45.624;11.700;2023-03-03T03:31:29;7.20;65.90
63013;DHT22;62113;45.624;11.700;2023-03-03T03:33:54;7.20;65.80
63013;DHT22;62113;45.624;11.700;2023-03-03T03:36:20;7.20;65.70
63013;DHT22;62113;45.624;11.700;2023-03-03T03:38:46;7.20;65.70
63013;DHT22;62113;45.624;11.700;2023-03-03T03:41:11;7.20;65.80
63013;DHT22;62113;45.624;11.700;2023-03-03T03:43:38;7.20;65.80
63013;DHT22;62113;45.624;11.700;2023-03-03T03:46:04;7.20;65.60
63013;DHT22;62113;45.624;11.700;2023-03-03T03:48:29;7.20;65.70
63013;DHT22;62113;45.624;11.700;2023-03-03T03:50:55;7.20;65.60
63013;DHT22;62113;45.624;11.700;2023-03-03T03:53:20;7.20;65.60
63013;DHT22;62113;45.624;11.700;2023-03-03T03:55:46;7.10;65.60
63013;DHT22;62113;45.624;11.700;2023-03-03T03:58:12;7.10;65.70
63013;DHT22;62113;45.624;11.700;2023-03-03T04:00:39;7.10;65.70
63013;DHT22;62113;45.624;11.700;2023-03-03T04:03:04;7.10;65.70
63013;DHT22;62113;45.624;11.700;2023-03-03T04:05:30;7.00;65.70
63013;DHT22;62113;45.624;11.700;2023-03-03T04:07:55;7.10;65.70
63013;DHT22;62113;45.624;11.700;2023-03-03T04:10:21;7.00;65.60
63013;DHT22;62113;45.624;11.700;2023-03-03T04:12:46;7.00;65.60
63013;DHT22;62113;45.624;11.700;2023-03-03T04:15:12;7.00;65.70
63013;DHT22;62113;45.624;11.700;2023-03-03T04:17:38;7.00;65.60
63013;DHT22;62113;45.624;11.700;2023-03-03T04:20:04;6.90;65.60
63013;DHT22;62113;45.624;11.700;2023-03-03T04:22:30;6.90;65.50
63013;DHT22;62113;45.624;11.700;2023-03-03T04:25:00;6.90;65.70
63013;DHT22;62113;45.624;11.700;2023-03-03T04:27:30;6.90;65.80
63013;DHT22;62113;45.624;11.700;2023-03-03T04:29:56;6.80;65.70
63013;DHT22;62113;45.624;11.700;2023-03-03T04:32:21;6.80;65.70
63013;DHT22;62113;45.624;11.700;2023-03-03T04:34:47;6.80;65.80
63013;DHT22;62113;45.624;11.700;2023-03-03T04:37:12;6.80;65.80
63013;DHT22;62113;45.624;11.700;2023-03-03T04:39:38;6.80;65.80
63013;DHT22;62113;45.624;11.700;2023-03-03T04:42:03;6.70;65.90
63013;DHT22;62113;45.624;11.700;2023-03-03T04:44:29;6.70;66.10
63013;DHT22;62113;45.624;11.700;2023-03-03T04:46:54;6.70;66.20
63013;DHT22;62113;45.624;11.700;2023-03-03T04:49:20;6.70;66.20
63013;DHT22;62113;45.624;11.700;2023-03-03T04:51:45;6.70;66.00
63013;DHT22;62113;45.624;11.700;2023-03-03T04:54:11;6.70;66.00
63013;DHT22;62113;45.624;11.700;2023-03-03T04:56:36;6.70;66.20
63013;DHT22;62113;45.624;11.700;2023-03-03T04:59:01;6.70;66.10
63013;DHT22;62113;45.624;11.700;2023-03-03T05:01:27;6.60;66.30
63013;DHT22;62113;45.624;11.700;2023-03-03T05:03:52;6.60;66.40
63013;DHT22;62113;45.624;11.700;2023-03-03T05:06:18;6.60;66.80
63013;DHT22;62113;45.624;11.700;2023-03-03T05:08:44;6.60;66.30
63013;DHT22;62113;45.624;11.700;2023-03-03T05:11:09;6.60;66.20
63013;DHT22;62113;45.624;11.700;2023-03-03T05:13:35;6.60;66.20
63013;DHT22;62113;45.624;11.700;2023-03-03T05:16:01;6.60;66.20
63013;DHT22;62113;45.624;11.700;2023-03-03T05:18:26;6.50;66.30
63013;DHT22;62113;45.624;11.700;2023-03-03T05:20:52;6.50;66.40
63013;DHT22;62113;45.624;11.700;2023-03-03T05:23:17;6.50;66.40
63013;DHT22;62113;45.624;11.700;2023-03-03T05:25:43;6.50;66.30
63013;DHT22;62113;45.624;11.700;2023-03-03T05:28:09;6.50;66.40
63013;DHT22;62113;45.624;11.700;2023-03-03T05:30:35;6.40;66.50
63013;DHT22;62113;45.624;11.700;2023-03-03T05:33:01;6.50;66.60
63013;DHT22;62113;45.624;11.700;2023-03-03T05:35:27;6.40;66.60
63013;DHT22;62113;45.624;11.700;2023-03-03T05:37:53;6.40;66.50
63013;DHT22;62113;45.624;11.700;2023-03-03T05:40:19;6.40;66.60
63013;DHT22;62113;45.624;11.700;2023-03-03T05:42:44;6.40;66.70
63013;DHT22;62113;45.624;11.700;2023-03-03T05:45:10;6.40;66.60
63013;DHT22;62113;45.624;11.700;2023-03-03T05:47:36;6.40;66.70
63013;DHT22;62113;45.624;11.700;2023-03-03T05:50:01;6.50;66.50
63013;DHT22;62113;45.624;11.700;2023-03-03T05:52:27;6.40;66.50
63013;DHT22;62113;45.624;11.700;2023-03-03T05:54:52;6.40;66.50
63013;DHT22;62113;45.624;11.700;2023-03-03T05:57:18;6.40;66.50
63013;DHT22;62113;45.624;11.700;2023-03-03T05:59:43;6.40;66.60
63013;DHT22;62113;45.624;11.700;2023-03-03T06:02:09;6.40;66.60
63013;DHT22;62113;45.624;11.700;2023-03-03T06:04:35;6.40;66.70
63013;DHT22;62113;45.624;11.700;2023-03-03T06:07:00;6.50;66.80
63013;DHT22;62113;45.624;11.700;2023-03-03T06:09:26;6.50;67.00
63013;DHT22;62113;45.624;11.700;2023-03-03T06:11:51;6.70;67.10
63013;DHT22;62113;45.624;11.700;2023-03-03T06:14:18;6.90;67.20
63013;DHT22;62113;45.624;11.700;2023-03-03T06:16:45;7.20;67.10
63013;DHT22;62113;45.624;11.700;2023-03-03T06:19:10;7.60;67.00
63013;DHT22;62113;45.624;11.700;2023-03-03T06:21:36;8.00;66.50
63013;DHT22;62113;45.624;11.700;2023-03-03T06:24:01;8.40;66.30
63013;DHT22;62113;45.624;11.700;2023-03-03T06:26:26;9.00;65.40
63013;DHT22;62113;45.624;11.700;2023-03-03T06:28:52;9.70;63.20
63013;DHT22;62113;45.624;11.700;2023-03-03T06:31:19;10.30;60.60
63013;DHT22;62113;45.624;11.700;2023-03-03T06:33:45;11.00;60.30
63013;DHT22;62113;45.624;11.700;2023-03-03T06:36:10;11.60;58.30
63013;DHT22;62113;45.624;11.700;2023-03-03T06:38:36;12.20;57.10
63013;DHT22;62113;45.624;11.700;2023-03-03T06:41:02;12.80;53.60
63013;DHT22;62113;45.624;11.700;2023-03-03T06:43:34;13.40;52.50
63013;DHT22;62113;45.624;11.700;2023-03-03T06:46:00;14.00;49.50
63013;DHT22;62113;45.624;11.700;2023-03-03T06:48:25;14.60;49.00
63013;DHT22;62113;45.624;11.700;2023-03-03T06:50:51;15.10;45.90
63013;DHT22;62113;45.624;11.700;2023-03-03T06:53:17;15.70;44.80
63013;DHT22;62113;45.624;11.700;2023-03-03T06:55:42;16.20;44.90
63013;DHT22;62113;45.624;11.700;2023-03-03T06:58:16;16.60;43.90
63013;DHT22;62113;45.624;11.700;2023-03-03T07:00:48;17.10;42.80
63013;DHT22;62113;45.624;11.700;2023-03-03T07:03:16;17.70;42.00
63013;DHT22;62113;45.624;11.700;2023-03-03T07:05:42;18.10;43.80
63013;DHT22;62113;45.624;11.700;2023-03-03T07:08:12;18.60;42.00
63013;DHT22;62113;45.624;11.700;2023-03-03T07:10:38;19.00;38.60
63013;DHT22;62113;45.624;11.700;2023-03-03T07:13:15;19.40;41.10
63013;DHT22;62113;45.624;11.700;2023-03-03T07:15:41;19.80;38.70
63013;DHT22;62113;45.624;11.700;2023-03-03T07:18:10;20.30;39.70
63013;DHT22;62113;45.624;11.700;2023-03-03T07:20:44;20.70;37.90
63013;DHT22;62113;45.624;11.700;2023-03-03T07:23:22;21.20;37.00
63013;DHT22;62113;45.624;11.700;2023-03-03T07:25:48;21.60;36.20
63013;DHT22;62113;45.624;11.700;2023-03-03T07:30:43;22.40;34.60
63013;DHT22;62113;45.624;11.700;2023-03-03T07:33:14;22.80;34.30
63013;DHT22;62113;45.624;11.700;2023-03-03T07:35:43;23.20;34.30
63013;DHT22;62113;45.624;11.700;2023-03-03T07:38:22;23.50;31.20
63013;DHT22;62113;45.624;11.700;2023-03-03T07:40:52;23.80;31.40
63013;DHT22;62113;45.624;11.700;2023-03-03T07:46:02;24.30;29.90
63013;DHT22;62113;45.624;11.700;2023-03-03T07:48:42;24.70;30.60
63013;DHT22;62113;45.624;11.700;2023-03-03T07:56:36;25.80;29.00
63013;DHT22;62113;45.624;11.700;2023-03-03T07:59:02;26.20;27.80
63013;DHT22;62113;45.624;11.700;2023-03-03T08:01:39;26.70;29.10
63013;DHT22;62113;45.624;11.700;2023-03-03T08:14:30;28.40;25.70
63013;DHT22;62113;45.624;11.700;2023-03-03T08:16:58;28.70;26.80
63013;DHT22;62113;45.624;11.700;2023-03-03T08:19:23;28.70;24.90
63013;DHT22;62113;45.624;11.700;2023-03-03T08:21:49;28.80;25.50
63013;DHT22;62113;45.624;11.700;2023-03-03T08:24:15;29.00;25.60
63013;DHT22;62113;45.624;11.700;2023-03-03T08:26:40;29.00;26.10
63013;DHT22;62113;45.624;11.700;2023-03-03T08:29:06;29.10;26.70
63013;DHT22;62113;45.624;11.700;2023-03-03T08:31:31;29.30;26.50
63013;DHT22;62113;45.624;11.700;2023-03-03T08:33:57;29.40;25.40
63013;DHT22;62113;45.624;11.700;2023-03-03T08:36:23;29.40;25.50
63013;DHT22;62113;45.624;11.700;2023-03-03T08:38:49;29.20;24.60
63013;DHT22;62113;45.624;11.700;2023-03-03T08:41:14;28.80;25.10
63013;DHT22;62113;45.624;11.700;2023-03-03T08:43:40;28.20;25.40
63013;DHT22;62113;45.624;11.700;2023-03-03T08:46:06;27.50;25.80
63013;DHT22;62113;45.624;11.700;2023-03-03T08:48:32;26.60;27.00
63013;DHT22;62113;45.624;11.700;2023-03-03T08:50:57;25.80;28.10
63013;DHT22;62113;45.624;11.700;2023-03-03T08:53:23;25.20;28.90
63013;DHT22;62113;45.624;11.700;2023-03-03T08:55:49;24.60;29.70
63013;DHT22;62113;45.624;11.700;2023-03-03T08:58:15;24.20;30.40
63013;DHT22;62113;45.624;11.700;2023-03-03T09:00:41;24.00;31.00
63013;DHT22;62113;45.624;11.700;2023-03-03T09:03:06;23.90;30.90
63013;DHT22;62113;45.624;11.700;2023-03-03T09:05:32;24.00;31.40
63013;DHT22;62113;45.624;11.700;2023-03-03T09:07:58;24.00;31.90
63013;DHT22;62113;45.624;11.700;2023-03-03T09:10:25;24.00;31.60
63013;DHT22;62113;45.624;11.700;2023-03-03T09:12:56;24.00;32.00
63013;DHT22;62113;45.624;11.700;2023-03-03T09:15:24;24.20;31.90
63013;DHT22;62113;45.624;11.700;2023-03-03T09:17:50;24.50;31.60
63013;DHT22;62113;45.624;11.700;2023-03-03T09:20:21;24.70;30.80
63013;DHT22;62113;45.624;11.700;2023-03-03T09:22:48;24.90;30.30
63013;DHT22;62113;45.624;11.700;2023-03-03T09:25:17;24.90;30.00
63013;DHT22;62113;45.624;11.700;2023-03-03T09:27:46;24.80;30.20
63013;DHT22;62113;45.624;11.700;2023-03-03T09:32:56;24.50;30.90
63013;DHT22;62113;45.624;11.700;2023-03-03T09:37:50;23.60;31.60
63013;DHT22;62113;45.624;11.700;2023-03-03T09:43:03;22.80;32.60
63013;DHT22;62113;45.624;11.700;2023-03-03T09:45:46;22.30;32.70
63013;DHT22;62113;45.624;11.700;2023-03-03T09:55:58;20.90;35.60
63013;DHT22;62113;45.624;11.700;2023-03-03T09:58:32;20.70;36.00
63013;DHT22;62113;45.624;11.700;2023-03-03T10:01:08;20.40;36.50
63013;DHT22;62113;45.624;11.700;2023-03-03T10:03:40;20.20;37.00
63013;DHT22;62113;45.624;11.700;2023-03-03T10:27:50;19.70;38.90
63013;DHT22;62113;45.624;11.700;2023-03-03T10:46:05;19.70;39.20
63013;DHT22;62113;45.624;11.700;2023-03-03T10:49:15;19.90;38.90
63013;DHT22;62113;45.624;11.700;2023-03-03T10:59:08;20.20;37.80
63013;DHT22;62113;45.624;11.700;2023-03-03T11:01:57;20.20;38.20
63013;DHT22;62113;45.624;11.700;2023-03-03T11:04:42;20.20;38.10
63013;DHT22;62113;45.624;11.700;2023-03-03T11:07:19;20.30;37.10
63013;DHT22;62113;45.624;11.700;2023-03-03T11:09:56;20.20;37.30
63013;DHT22;62113;45.624;11.700;2023-03-03T11:15:08;20.10;38.20
63013;DHT22;62113;45.624;11.700;2023-03-03T11:17:49;20.10;38.50
63013;DHT22;62113;45.624;11.700;2023-03-03T11:20:33;20.10;37.80
63013;DHT22;62113;45.624;11.700;2023-03-03T11:38:15;19.70;38.00
63013;DHT22;62113;45.624;11.700;2023-03-03T11:40:53;19.70;38.40
63013;DHT22;62113;45.624;11.700;2023-03-03T11:45:46;19.70;38.20
63013;DHT22;62113;45.624;11.700;2023-03-03T11:50:55;19.40;38.30
63013;DHT22;62113;45.624;11.700;2023-03-03T11:56:02;19.40;39.00
63013;DHT22;62113;45.624;11.700;2023-03-03T11:58:31;19.50;39.00
63013;DHT22;62113;45.624;11.700;2023-03-03T12:03:44;19.20;37.70
63013;DHT22;62113;45.624;11.700;2023-03-03T12:06:23;19.20;38.20
63013;DHT22;62113;45.624;11.700;2023-03-03T12:11:19;19.30;39.00
63013;DHT22;62113;45.624;11.700;2023-03-03T12:14:12;19.50;39.00
63013;DHT22;62113;45.624;11.700;2023-03-03T12:16:49;19.70;38.80
63013;DHT22;62113;45.624;11.700;2023-03-03T12:24:55;19.80;38.80
63013;DHT22;62113;45.624;11.700;2023-03-03T12:40:06;19.70;37.90
63013;DHT22;62113;45.624;11.700;2023-03-03T12:47:52;19.70;38.00
63013;DHT22;62113;45.624;11.700;2023-03-03T12:50:22;19.60;37.50
63013;DHT22;62113;45.624;11.700;2023-03-03T12:52:53;19.50;37.00
63013;DHT22;62113;45.624;11.700;2023-03-03T13:02:58;19.20;37.20
63013;DHT22;62113;45.624;11.700;2023-03-03T13:05:46;19.20;37.60
63013;DHT22;62113;45.624;11.700;2023-03-03T13:10:52;18.90;37.30
63013;DHT22;62113;45.624;11.700;2023-03-03T13:13:24;18.80;37.90
63013;DHT22;62113;45.624;11.700;2023-03-03T13:16:11;18.80;38.10
63013;DHT22;62113;45.624;11.700;2023-03-03T13:21:49;18.80;38.50
63013;DHT22;62113;45.624;11.700;2023-03-03T13:26:33;18.90;38.80
63013;DHT22;62113;45.624;11.700;2023-03-03T13:31:28;18.80;38.20
63013;DHT22;62113;45.624;11.700;2023-03-03T13:33:59;18.70;38.70
63013;DHT22;62113;45.624;11.700;2023-03-03T13:36:33;18.70;38.90
63013;DHT22;62113;45.624;11.700;2023-03-03T13:39:01;18.60;38.70
63013;DHT22;62113;45.624;11.700;2023-03-03T13:41:31;18.50;38.30
63013;DHT22;62113;45.624;11.700;2023-03-03T13:44:08;18.40;38.40
63013;DHT22;62113;45.624;11.700;2023-03-03T13:46:39;18.40;38.90
63013;DHT22;62113;45.624;11.700;2023-03-03T13:51:56;18.50;39.40
63013;DHT22;62113;45.624;11.700;2023-03-03T13:57:10;18.50;39.80
63013;DHT22;62113;45.624;11.700;2023-03-03T14:05:00;18.50;39.00
63013;DHT22;62113;45.624;11.700;2023-03-03T14:07:27;18.40;39.20
63013;DHT22;62113;45.624;11.700;2023-03-03T14:10:07;18.30;39.30
63013;DHT22;62113;45.624;11.700;2023-03-03T14:15:06;18.20;39.30
63013;DHT22;62113;45.624;11.700;2023-03-03T14:20:03;18.10;39.70
63013;DHT22;62113;45.624;11.700;2023-03-03T14:22:55;18.10;40.00
63013;DHT22;62113;45.624;11.700;2023-03-03T14:25:21;18.10;40.20
63013;DHT22;62113;45.624;11.700;2023-03-03T14:35:24;18.00;40.60
63013;DHT22;62113;45.624;11.700;2023-03-03T14:37:53;18.00;40.70
63013;DHT22;62113;45.624;11.700;2023-03-03T14:40:32;18.10;40.80
63013;DHT22;62113;45.624;11.700;2023-03-03T14:42:59;18.10;40.60
63013;DHT22;62113;45.624;11.700;2023-03-03T14:48:22;17.90;39.70
63013;DHT22;62113;45.624;11.700;2023-03-03T14:50:53;17.90;40.10
63013;DHT22;62113;45.624;11.700;2023-03-03T14:53:34;17.90;40.30
63013;DHT22;62113;45.624;11.700;2023-03-03T14:56:20;17.90;40.10
63013;DHT22;62113;45.624;11.700;2023-03-03T14:58:47;17.80;40.10
63013;DHT22;62113;45.624;11.700;2023-03-03T15:09:59;17.60;40.30
63013;DHT22;62113;45.624;11.700;2023-03-03T15:12:16;17.60;40.40
63013;DHT22;62113;45.624;11.700;2023-03-03T15:14:44;17.50;40.60
63013;DHT22;62113;45.624;11.700;2023-03-03T15:19:43;17.50;41.10
63013;DHT22;62113;45.624;11.700;2023-03-03T15:22:33;17.40;41.30
63013;DHT22;62113;45.624;11.700;2023-03-03T15:25:03;17.30;40.90
63013;DHT22;62113;45.624;11.700;2023-03-03T15:27:43;17.20;41.10
63013;DHT22;62113;45.624;11.700;2023-03-03T15:30:19;17.10;41.40
63013;DHT22;62113;45.624;11.700;2023-03-03T15:35:33;17.00;41.40
63013;DHT22;62113;45.624;11.700;2023-03-03T15:38:03;16.90;41.30
63013;DHT22;62113;45.624;11.700;2023-03-03T15:40:38;16.80;41.60
63013;DHT22;62113;45.624;11.700;2023-03-03T15:43:16;16.80;41.70
63013;DHT22;62113;45.624;11.700;2023-03-03T15:48:34;16.70;41.60
63013;DHT22;62113;45.624;11.700;2023-03-03T15:56:24;16.50;42.00
63013;DHT22;62113;45.624;11.700;2023-03-03T15:58:58;16.50;42.20
63013;DHT22;62113;45.624;11.700;2023-03-03T16:04:12;16.50;42.30
63013;DHT22;62113;45.624;11.700;2023-03-03T16:06:40;16.50;42.50
63013;DHT22;62113;45.624;11.700;2023-03-03T16:09:15;16.50;42.60
63013;DHT22;62113;45.624;11.700;2023-03-03T16:17:17;16.40;42.90
63013;DHT22;62113;45.624;11.700;2023-03-03T16:19:54;16.30;42.90
63013;DHT22;62113;45.624;11.700;2023-03-03T16:22:26;16.30;43.20
63013;DHT22;62113;45.624;11.700;2023-03-03T16:27:36;16.20;43.70
63013;DHT22;62113;45.624;11.700;2023-03-03T16:32:58;16.20;44.30
63013;DHT22;62113;45.624;11.700;2023-03-03T16:35:37;16.10;44.90
63013;DHT22;62113;45.624;11.700;2023-03-03T16:38:14;16.10;44.90
63013;DHT22;62113;45.624;11.700;2023-03-03T16:40:44;16.00;45.10
63013;DHT22;62113;45.624;11.700;2023-03-03T16:45:58;15.80;46.10
63013;DHT22;62113;45.624;11.700;2023-03-03T16:48:40;15.70;45.90
63013;DHT22;62113;45.624;11.700;2023-03-03T17:03:44;15.30;47.50
63013;DHT22;62113;45.624;11.700;2023-03-03T17:06:22;15.20;47.70
63013;DHT22;62113;45.624;11.700;2023-03-03T17:14:05;15.00;49.00
63013;DHT22;62113;45.624;11.700;2023-03-03T17:19:03;14.90;49.30
63013;DHT22;62113;45.624;11.700;2023-03-03T17:37:18;14.60;50.90
63013;DHT22;62113;45.624;11.700;2023-03-03T17:39:44;14.50;50.90
63013;DHT22;62113;45.624;11.700;2023-03-03T17:42:16;14.40;50.70
63013;DHT22;62113;45.624;11.700;2023-03-03T17:47:11;14.40;51.00
63013;DHT22;62113;45.624;11.700;2023-03-03T17:52:25;14.00;53.40
63013;DHT22;62113;45.624;11.700;2023-03-03T17:55:14;13.50;54.60
63013;DHT22;62113;45.624;11.700;2023-03-03T18:03:03;12.70;58.20
63013;DHT22;62113;45.624;11.700;2023-03-03T18:18:38;11.60;61.90
63013;DHT22;62113;45.624;11.700;2023-03-03T18:21:07;11.40;61.70
63013;DHT22;62113;45.624;11.700;2023-03-03T18:23:35;11.20;62.30
63013;DHT22;62113;45.624;11.700;2023-03-03T18:26:48;11.10;62.90
63013;DHT22;62113;45.624;11.700;2023-03-03T18:31:42;10.80;64.20
63013;DHT22;62113;45.624;11.700;2023-03-03T18:34:09;10.90;63.20
63013;DHT22;62113;45.624;11.700;2023-03-03T18:36:55;11.00;62.60
63013;DHT22;62113;45.624;11.700;2023-03-03T18:39:41;11.20;62.60
63013;DHT22;62113;45.624;11.700;2023-03-03T18:44:40;11.50;61.70
63013;DHT22;62113;45.624;11.700;2023-03-03T18:47:06;11.60;61.20
63013;DHT22;62113;45.624;11.700;2023-03-03T18:52:17;11.80;60.30
63013;DHT22;62113;45.624;11.700;2023-03-03T18:54:57;11.90;59.90
63013;DHT22;62113;45.624;11.700;2023-03-03T18:57:22;11.90;59.70
63013;DHT22;62113;45.624;11.700;2023-03-03T18:59:52;12.00;59.30
63013;DHT22;62113;45.624;11.700;2023-03-03T19:02:35;12.10;59.10
63013;DHT22;62113;45.624;11.700;2023-03-03T19:05:16;12.10;58.50
63013;DHT22;62113;45.624;11.700;2023-03-03T19:07:47;12.10;58.10
63013;DHT22;62113;45.624;11.700;2023-03-03T19:20:22;12.10;57.20
63013;DHT22;62113;45.624;11.700;2023-03-03T19:22:48;12.10;57.20
63013;DHT22;62113;45.624;11.700;2023-03-03T19:25:19;12.10;57.20
63013;DHT22;62113;45.624;11.700;2023-03-03T19:27:50;12.10;57.00
63013;DHT22;62113;45.624;11.700;2023-03-03T19:32:58;12.20;56.90
63013;DHT22;62113;45.624;11.700;2023-03-03T19:35:34;12.20;57.10
63013;DHT22;62113;45.624;11.700;2023-03-03T19:40:33;12.20;56.50
63013;DHT22;62113;45.624;11.700;2023-03-03T19:43:03;12.20;56.50
63013;DHT22;62113;45.624;11.700;2023-03-03T19:50:45;12.20;56.30
63013;DHT22;62113;45.624;11.700;2023-03-03T20:03:15;12.10;56.40
63013;DHT22;62113;45.624;11.700;2023-03-03T20:05:47;12.10;56.40
63013;DHT22;62113;45.624;11.700;2023-03-03T20:13:12;12.00;56.60
63013;DHT22;62113;45.624;11.700;2023-03-03T20:15:51;12.00;56.60
63013;DHT22;62113;45.624;11.700;2023-03-03T20:21:07;11.90;56.80
63013;DHT22;62113;45.624;11.700;2023-03-03T20:23:53;11.80;56.90
63013;DHT22;62113;45.624;11.700;2023-03-03T20:34:05;11.80;56.70
63013;DHT22;62113;45.624;11.700;2023-03-03T20:46:43;11.90;56.80
63013;DHT22;62113;45.624;11.700;2023-03-03T20:51:53;11.90;56.90
63013;DHT22;62113;45.624;11.700;2023-03-03T20:54:31;11.80;57.10
63013;DHT22;62113;45.624;11.700;2023-03-03T21:05:05;11.80;57.20
63013;DHT22;62113;45.624;11.700;2023-03-03T21:07:31;11.80;57.20
63013;DHT22;62113;45.624;11.700;2023-03-03T21:10:12;11.70;57.50
63013;DHT22;62113;45.624;11.700;2023-03-03T21:12:37;11.70;57.30
63013;DHT22;62113;45.624;11.700;2023-03-03T21:15:04;11.70;57.30
63013;DHT22;62113;45.624;11.700;2023-03-03T21:17:31;11.70;57.40
63013;DHT22;62113;45.624;11.700;2023-03-03T21:20:19;11.70;57.40
63013;DHT22;62113;45.624;11.700;2023-03-03T21:22:43;11.70;57.40
63013;DHT22;62113;45.624;11.700;2023-03-03T21:25:11;11.70;57.40
63013;DHT22;62113;45.624;11.700;2023-03-03T21:27:36;11.60;57.40
63013;DHT22;62113;45.624;11.700;2023-03-03T21:32:37;11.50;57.40
63013;DHT22;62113;45.624;11.700;2023-03-03T21:35:07;11.50;57.60
63013;DHT22;62113;45.624;11.700;2023-03-03T21:37:47;11.50;57.50
63013;DHT22;62113;45.624;11.700;2023-03-03T21:40:14;11.40;57.50
63013;DHT22;62113;45.624;11.700;2023-03-03T21:42:41;11.40;57.60
63013;DHT22;62113;45.624;11.700;2023-03-03T21:45:09;11.30;58.10
63013;DHT22;62113;45.624;11.700;2023-03-03T21:47:35;11.30;57.80